sensor_id;sensor_type;location;lat;lon;timestamp;temperature;humidity
13713;DHT22;6928;50.546;7.120;2022-11-25T00:01:37;5.68;89.52
13713;DHT22;6928;50.546;7.120;2022-11-25T00:04:04;5.45;90.15
13713;DHT22;6928;50.546;7.120;2022-11-25T00:06:32;5.25;90.23
13713;DHT22;6928;50.546;7.120;2022-11-25T00:09:02;5.27;90.20
13713;DHT22;6928;50.546;7.120;2022-11-25T00:11:29;5.41;90.39
13713;DHT22;6928;50.546;7.120;2022-11-25T00:13:56;5.32;89.89
13713;DHT22;6928;50.546;7.120;2022-11-25T00:16:24;5.46;89.99
13713;DHT22;6928;50.546;7.120;2022-11-25T00:18:54;5.38;89.73
13713;DHT22;6928;50.546;7.120;2022-11-25T00:21:22;5.49;89.45
13713;DHT22;6928;50.546;7.120;2022-11-25T00:23:50;5.48;89.18
13713;DHT22;6928;50.546;7.120;2022-11-25T00:26:18;5.48;89.41
13713;DHT22;6928;50.546;7.120;2022-11-25T00:28:45;4.97;90.75
13713;DHT22;6928;50.546;7.120;2022-11-25T00:31:14;5.27;90.30
13713;DHT22;6928;50.546;7.120;2022-11-25T00:33:41;5.27;89.77
13713;DHT22;6928;50.546;7.120;2022-11-25T00:36:14;5.27;89.69
13713;DHT22;6928;50.546;7.120;2022-11-25T00:38:41;5.28;89.52
13713;DHT22;6928;50.546;7.120;2022-11-25T00:41:07;5.17;90.44
13713;DHT22;6928;50.546;7.120;2022-11-25T00:43:51;5.34;89.76
13713;DHT22;6928;50.546;7.120;2022-11-25T00:46:35;5.39;89.36
13713;DHT22;6928;50.546;7.120;2022-11-25T00:49:02;5.31;89.83
13713;DHT22;6928;50.546;7.120;2022-11-25T00:51:30;5.08;90.61
13713;DHT22;6928;50.546;7.120;2022-11-25T00:53:56;5.28;90.25
13713;DHT22;6928;50.546;7.120;2022-11-25T00:56:23;5.24;90.43
13713;DHT22;6928;50.546;7.120;2022-11-25T00:58:52;5.31;90.32
13713;DHT22;6928;50.546;7.120;2022-11-25T01:01:18;4.97;90.89
13713;DHT22;6928;50.546;7.120;2022-11-25T01:03:47;5.04;91.15
13713;DHT22;6928;50.546;7.120;2022-11-25T01:06:14;5.17;90.87
13713;DHT22;6928;50.546;7.120;2022-11-25T01:08:42;5.18;90.58
13713;DHT22;6928;50.546;7.120;2022-11-25T01:11:11;5.21;90.98
13713;DHT22;6928;50.546;7.120;2022-11-25T01:13:38;5.48;90.54
13713;DHT22;6928;50.546;7.120;2022-11-25T01:16:07;5.34;90.56
13713;DHT22;6928;50.546;7.120;2022-11-25T01:18:34;5.48;90.20
13713;DHT22;6928;50.546;7.120;2022-11-25T01:21:04;5.42;90.34
13713;DHT22;6928;50.546;7.120;2022-11-25T01:23:31;5.52;90.23
13713;DHT22;6928;50.546;7.120;2022-11-25T01:26:01;5.43;90.28
13713;DHT22;6928;50.546;7.120;2022-11-25T01:28:28;5.39;90.72
13713;DHT22;6928;50.546;7.120;2022-11-25T01:30:59;5.39;90.66
13713;DHT22;6928;50.546;7.120;2022-11-25T01:33:26;5.45;90.80
13713;DHT22;6928;50.546;7.120;2022-11-25T01:35:53;5.43;90.92
13713;DHT22;6928;50.546;7.120;2022-11-25T01:38:19;5.46;90.74
13713;DHT22;6928;50.546;7.120;2022-11-25T01:40:46;5.55;90.82
13713;DHT22;6928;50.546;7.120;2022-11-25T01:43:14;5.83;91.10
13713;DHT22;6928;50.546;7.120;2022-11-25T01:45:41;6.04;90.98
13713;DHT22;6928;50.546;7.120;2022-11-25T01:48:12;6.41;91.22
13713;DHT22;6928;50.546;7.120;2022-11-25T01:50:41;6.41;91.04
13713;DHT22;6928;50.546;7.120;2022-11-25T01:53:10;6.46;91.50
13713;DHT22;6928;50.546;7.120;2022-11-25T01:55:38;6.35;91.50
13713;DHT22;6928;50.546;7.120;2022-11-25T01:58:10;6.28;91.55
13713;DHT22;6928;50.546;7.120;2022-11-25T02:00:39;6.56;91.84
13713;DHT22;6928;50.546;7.120;2022-11-25T02:03:06;6.75;92.55
13713;DHT22;6928;50.546;7.120;2022-11-25T02:05:38;7.01;91.95
13713;DHT22;6928;50.546;7.120;2022-11-25T02:08:06;7.10;91.74
13713;DHT22;6928;50.546;7.120;2022-11-25T02:10:33;7.14;91.58
13713;DHT22;6928;50.546;7.120;2022-11-25T02:13:01;7.21;91.38
13713;DHT22;6928;50.546;7.120;2022-11-25T02:15:30;7.24;91.27
13713;DHT22;6928;50.546;7.120;2022-11-25T02:18:00;7.26;91.28
13713;DHT22;6928;50.546;7.120;2022-11-25T02:20:27;7.35;91.12
13713;DHT22;6928;50.546;7.120;2022-11-25T02:22:58;7.37;91.05
13713;DHT22;6928;50.546;7.120;2022-11-25T02:25:29;7.30;91.03
13713;DHT22;6928;50.546;7.120;2022-11-25T02:27:58;7.32;91.19
13713;DHT22;6928;50.546;7.120;2022-11-25T02:30:27;7.41;90.93
13713;DHT22;6928;50.546;7.120;2022-11-25T02:32:57;7.32;90.97
13713;DHT22;6928;50.546;7.120;2022-11-25T02:35:32;7.34;90.92
13713;DHT22;6928;50.546;7.120;2022-11-25T02:38:04;7.41;90.82
13713;DHT22;6928;50.546;7.120;2022-11-25T02:40:33;7.42;90.82
13713;DHT22;6928;50.546;7.120;2022-11-25T02:43:02;7.30;90.81
13713;DHT22;6928;50.546;7.120;2022-11-25T02:45:41;7.41;91.00
13713;DHT22;6928;50.546;7.120;2022-11-25T02:48:09;7.38;90.79
13713;DHT22;6928;50.546;7.120;2022-11-25T02:50:36;7.44;90.59
13713;DHT22;6928;50.546;7.120;2022-11-25T02:53:03;7.38;90.56
13713;DHT22;6928;50.546;7.120;2022-11-25T02:55:29;7.45;90.45
13713;DHT22;6928;50.546;7.120;2022-11-25T02:57:57;7.47;90.37
13713;DHT22;6928;50.546;7.120;2022-11-25T03:00:24;7.45;90.26
13713;DHT22;6928;50.546;7.120;2022-11-25T03:02:52;7.50;90.21
13713;DHT22;6928;50.546;7.120;2022-11-25T03:05:19;7.54;90.16
13713;DHT22;6928;50.546;7.120;2022-11-25T03:07:46;7.56;90.06
13713;DHT22;6928;50.546;7.120;2022-11-25T03:10:13;7.56;90.11
13713;DHT22;6928;50.546;7.120;2022-11-25T03:12:39;7.58;90.15
13713;DHT22;6928;50.546;7.120;2022-11-25T03:15:08;7.66;89.93
13713;DHT22;6928;50.546;7.120;2022-11-25T03:17:35;7.63;90.08
13713;DHT22;6928;50.546;7.120;2022-11-25T03:20:02;7.63;89.71
13713;DHT22;6928;50.546;7.120;2022-11-25T03:22:29;7.72;89.82
13713;DHT22;6928;50.546;7.120;2022-11-25T03:24:55;7.77;89.49
13713;DHT22;6928;50.546;7.120;2022-11-25T03:27:22;7.75;89.46
13713;DHT22;6928;50.546;7.120;2022-11-25T03:29:48;7.75;89.54
13713;DHT22;6928;50.546;7.120;2022-11-25T03:32:17;7.81;89.35
13713;DHT22;6928;50.546;7.120;2022-11-25T03:34:43;7.78;89.02
13713;DHT22;6928;50.546;7.120;2022-11-25T03:37:10;7.85;89.10
13713;DHT22;6928;50.546;7.120;2022-11-25T03:39:36;7.86;88.81
13713;DHT22;6928;50.546;7.120;2022-11-25T03:42:03;7.69;89.33
13713;DHT22;6928;50.546;7.120;2022-11-25T03:44:30;7.78;89.20
13713;DHT22;6928;50.546;7.120;2022-11-25T03:46:56;7.75;89.19
13713;DHT22;6928;50.546;7.120;2022-11-25T03:49:24;7.75;89.27
13713;DHT22;6928;50.546;7.120;2022-11-25T03:51:51;7.86;88.96
13713;DHT22;6928;50.546;7.120;2022-11-25T03:54:17;7.88;88.78
13713;DHT22;6928;50.546;7.120;2022-11-25T03:56:44;7.81;88.81
13713;DHT22;6928;50.546;7.120;2022-11-25T03:59:10;7.90;88.76
13713;DHT22;6928;50.546;7.120;2022-11-25T04:01:37;7.98;88.52
13713;DHT22;6928;50.546;7.120;2022-11-25T04:04:04;8.00;88.28
13713;DHT22;6928;50.546;7.120;2022-11-25T04:06:32;8.03;88.30
13713;DHT22;6928;50.546;7.120;2022-11-25T04:08:58;8.02;88.30
13713;DHT22;6928;50.546;7.120;2022-11-25T04:11:25;7.95;88.46
13713;DHT22;6928;50.546;7.120;2022-11-25T04:14:12;7.99;88.13
13713;DHT22;6928;50.546;7.120;2022-11-25T04:16:37;8.03;87.93
13713;DHT22;6928;50.546;7.120;2022-11-25T04:19:04;7.99;88.17
13713;DHT22;6928;50.546;7.120;2022-11-25T04:21:32;8.03;88.19
13713;DHT22;6928;50.546;7.120;2022-11-25T04:23:59;8.05;87.98
13713;DHT22;6928;50.546;7.120;2022-11-25T04:26:25;8.00;88.19
13713;DHT22;6928;50.546;7.120;2022-11-25T04:28:52;8.05;88.20
13713;DHT22;6928;50.546;7.120;2022-11-25T04:31:18;7.96;88.16
13713;DHT22;6928;50.546;7.120;2022-11-25T04:33:45;8.09;87.90
13713;DHT22;6928;50.546;7.120;2022-11-25T04:36:12;8.12;87.91
13713;DHT22;6928;50.546;7.120;2022-11-25T04:38:39;8.40;86.50
13713;DHT22;6928;50.546;7.120;2022-11-25T04:41:06;8.40;86.54
13713;DHT22;6928;50.546;7.120;2022-11-25T04:43:33;8.41;86.25
13713;DHT22;6928;50.546;7.120;2022-11-25T04:46:00;8.40;86.53
13713;DHT22;6928;50.546;7.120;2022-11-25T04:48:26;8.30;87.09
13713;DHT22;6928;50.546;7.120;2022-11-25T04:50:53;8.36;86.74
13713;DHT22;6928;50.546;7.120;2022-11-25T04:53:20;8.45;86.11
13713;DHT22;6928;50.546;7.120;2022-11-25T04:55:48;8.60;85.50
13713;DHT22;6928;50.546;7.120;2022-11-25T04:58:14;8.52;85.90
13713;DHT22;6928;50.546;7.120;2022-11-25T05:01:02;8.54;85.96
13713;DHT22;6928;50.546;7.120;2022-11-25T05:03:28;8.57;85.86
13713;DHT22;6928;50.546;7.120;2022-11-25T05:05:54;8.57;85.91
13713;DHT22;6928;50.546;7.120;2022-11-25T05:08:21;8.55;85.95
13713;DHT22;6928;50.546;7.120;2022-11-25T05:10:49;8.61;85.66
13713;DHT22;6928;50.546;7.120;2022-11-25T05:13:15;8.61;85.54
13713;DHT22;6928;50.546;7.120;2022-11-25T05:15:42;8.58;85.58
13713;DHT22;6928;50.546;7.120;2022-11-25T05:18:09;8.64;85.37
13713;DHT22;6928;50.546;7.120;2022-11-25T05:20:35;8.65;85.45
13713;DHT22;6928;50.546;7.120;2022-11-25T05:23:02;8.54;85.60
13713;DHT22;6928;50.546;7.120;2022-11-25T05:25:28;8.55;85.61
13713;DHT22;6928;50.546;7.120;2022-11-25T05:27:56;8.60;85.92
13713;DHT22;6928;50.546;7.120;2022-11-25T05:30:25;8.51;86.08
13713;DHT22;6928;50.546;7.120;2022-11-25T05:32:52;8.48;86.37
13713;DHT22;6928;50.546;7.120;2022-11-25T05:35:19;8.38;86.87
13713;DHT22;6928;50.546;7.120;2022-11-25T05:37:46;8.37;86.91
13713;DHT22;6928;50.546;7.120;2022-11-25T05:40:13;8.47;86.53
13713;DHT22;6928;50.546;7.120;2022-11-25T05:42:40;8.52;86.47
13713;DHT22;6928;50.546;7.120;2022-11-25T05:45:09;8.40;87.89
13713;DHT22;6928;50.546;7.120;2022-11-25T05:47:35;8.40;87.68
13713;DHT22;6928;50.546;7.120;2022-11-25T05:50:02;8.34;88.19
13713;DHT22;6928;50.546;7.120;2022-11-25T05:52:29;8.24;88.38
13713;DHT22;6928;50.546;7.120;2022-11-25T05:54:55;8.20;88.46
13713;DHT22;6928;50.546;7.120;2022-11-25T05:57:22;8.23;88.80
13713;DHT22;6928;50.546;7.120;2022-11-25T05:59:49;8.24;88.65
13713;DHT22;6928;50.546;7.120;2022-11-25T06:02:16;8.24;88.98
13713;DHT22;6928;50.546;7.120;2022-11-25T06:04:43;8.21;89.08
13713;DHT22;6928;50.546;7.120;2022-11-25T06:07:10;8.14;89.52
13713;DHT22;6928;50.546;7.120;2022-11-25T06:09:36;8.13;89.89
13713;DHT22;6928;50.546;7.120;2022-11-25T06:12:03;8.10;89.95
13713;DHT22;6928;50.546;7.120;2022-11-25T06:14:30;8.14;89.94
13713;DHT22;6928;50.546;7.120;2022-11-25T06:16:56;8.19;89.40
13713;DHT22;6928;50.546;7.120;2022-11-25T06:19:24;8.16;89.92
13713;DHT22;6928;50.546;7.120;2022-11-25T06:21:51;8.16;90.00
13713;DHT22;6928;50.546;7.120;2022-11-25T06:24:17;8.17;90.39
13713;DHT22;6928;50.546;7.120;2022-11-25T06:26:44;8.00;91.40
13713;DHT22;6928;50.546;7.120;2022-11-25T06:29:10;8.00;91.10
13713;DHT22;6928;50.546;7.120;2022-11-25T06:31:37;8.09;91.58
13713;DHT22;6928;50.546;7.120;2022-11-25T06:34:03;8.02;91.84
13713;DHT22;6928;50.546;7.120;2022-11-25T06:36:34;8.05;92.09
13713;DHT22;6928;50.546;7.120;2022-11-25T06:39:01;7.95;92.56
13713;DHT22;6928;50.546;7.120;2022-11-25T06:41:28;8.05;92.50
13713;DHT22;6928;50.546;7.120;2022-11-25T06:43:54;7.90;92.93
13713;DHT22;6928;50.546;7.120;2022-11-25T06:46:21;8.09;92.59
13713;DHT22;6928;50.546;7.120;2022-11-25T06:48:48;8.06;92.57
13713;DHT22;6928;50.546;7.120;2022-11-25T06:51:15;8.03;92.62
13713;DHT22;6928;50.546;7.120;2022-11-25T06:53:43;8.05;92.53
13713;DHT22;6928;50.546;7.120;2022-11-25T06:56:11;7.93;92.87
13713;DHT22;6928;50.546;7.120;2022-11-25T06:58:38;7.86;93.24
13713;DHT22;6928;50.546;7.120;2022-11-25T07:01:07;7.75;93.23
13713;DHT22;6928;50.546;7.120;2022-11-25T07:03:33;7.75;93.27
13713;DHT22;6928;50.546;7.120;2022-11-25T07:06:00;7.75;93.65
13713;DHT22;6928;50.546;7.120;2022-11-25T07:08:27;7.88;93.46
13713;DHT22;6928;50.546;7.120;2022-11-25T07:11:01;8.06;92.93
13713;DHT22;6928;50.546;7.120;2022-11-25T07:13:28;7.98;92.80
13713;DHT22;6928;50.546;7.120;2022-11-25T07:15:54;7.71;93.34
13713;DHT22;6928;50.546;7.120;2022-11-25T07:18:21;8.09;92.71
13713;DHT22;6928;50.546;7.120;2022-11-25T07:20:48;7.86;92.84
13713;DHT22;6928;50.546;7.120;2022-11-25T07:23:14;7.66;93.68
13713;DHT22;6928;50.546;7.120;2022-11-25T07:25:41;7.66;93.76
13713;DHT22;6928;50.546;7.120;2022-11-25T07:28:09;7.56;93.99
13713;DHT22;6928;50.546;7.120;2022-11-25T07:30:35;7.56;94.20
13713;DHT22;6928;50.546;7.120;2022-11-25T07:33:02;7.71;94.01
13713;DHT22;6928;50.546;7.120;2022-11-25T07:35:29;7.65;94.27
13713;DHT22;6928;50.546;7.120;2022-11-25T07:37:56;7.51;94.45
13713;DHT22;6928;50.546;7.120;2022-11-25T07:40:22;7.50;94.61
13713;DHT22;6928;50.546;7.120;2022-11-25T07:42:49;7.51;94.64
13713;DHT22;6928;50.546;7.120;2022-11-25T07:45:17;7.69;94.16
13713;DHT22;6928;50.546;7.120;2022-11-25T07:47:45;7.61;93.76
13713;DHT22;6928;50.546;7.120;2022-11-25T07:50:11;7.68;93.77
13713;DHT22;6928;50.546;7.120;2022-11-25T07:52:38;7.65;93.67
13713;DHT22;6928;50.546;7.120;2022-11-25T07:55:05;7.63;93.70
13713;DHT22;6928;50.546;7.120;2022-11-25T07:57:32;7.48;94.15
13713;DHT22;6928;50.546;7.120;2022-11-25T07:59:59;7.52;93.90
13713;DHT22;6928;50.546;7.120;2022-11-25T08:02:27;7.59;93.80
13713;DHT22;6928;50.546;7.120;2022-11-25T08:04:54;7.58;93.57
13713;DHT22;6928;50.546;7.120;2022-11-25T08:07:20;7.40;93.72
13713;DHT22;6928;50.546;7.120;2022-11-25T08:09:47;7.42;94.36
13713;DHT22;6928;50.546;7.120;2022-11-25T08:12:15;7.45;93.83
13713;DHT22;6928;50.546;7.120;2022-11-25T08:14:42;7.42;94.21
13713;DHT22;6928;50.546;7.120;2022-11-25T08:17:08;7.41;94.64
13713;DHT22;6928;50.546;7.120;2022-11-25T08:19:37;7.41;94.76
13713;DHT22;6928;50.546;7.120;2022-11-25T08:22:04;7.54;94.44
13713;DHT22;6928;50.546;7.120;2022-11-25T08:24:31;7.58;94.71
13713;DHT22;6928;50.546;7.120;2022-11-25T08:26:58;7.41;94.98
13713;DHT22;6928;50.546;7.120;2022-11-25T08:29:26;7.44;95.01
13713;DHT22;6928;50.546;7.120;2022-11-25T08:31:52;7.59;94.71
13713;DHT22;6928;50.546;7.120;2022-11-25T08:34:21;7.56;94.49
13713;DHT22;6928;50.546;7.120;2022-11-25T08:36:50;7.75;94.40
13713;DHT22;6928;50.546;7.120;2022-11-25T08:39:17;7.75;94.33
13713;DHT22;6928;50.546;7.120;2022-11-25T08:41:44;7.74;94.21
13713;DHT22;6928;50.546;7.120;2022-11-25T08:44:11;7.86;94.24
13713;DHT22;6928;50.546;7.120;2022-11-25T08:46:38;7.99;93.92
13713;DHT22;6928;50.546;7.120;2022-11-25T08:49:06;8.07;93.56
13713;DHT22;6928;50.546;7.120;2022-11-25T08:51:35;8.05;93.45
13713;DHT22;6928;50.546;7.120;2022-11-25T08:54:05;8.27;92.94
13713;DHT22;6928;50.546;7.120;2022-11-25T08:56:32;8.34;92.53
13713;DHT22;6928;50.546;7.120;2022-11-25T08:58:59;8.30;92.59
13713;DHT22;6928;50.546;7.120;2022-11-25T09:01:27;8.29;93.03
13713;DHT22;6928;50.546;7.120;2022-11-25T09:03:55;8.33;93.31
13713;DHT22;6928;50.546;7.120;2022-11-25T09:06:24;8.36;93.42
13713;DHT22;6928;50.546;7.120;2022-11-25T09:08:54;8.42;93.24
13713;DHT22;6928;50.546;7.120;2022-11-25T09:11:22;8.30;93.22
13713;DHT22;6928;50.546;7.120;2022-11-25T09:13:49;8.38;93.22
13713;DHT22;6928;50.546;7.120;2022-11-25T09:16:16;8.37;93.02
13713;DHT22;6928;50.546;7.120;2022-11-25T09:18:42;8.51;92.99
13713;DHT22;6928;50.546;7.120;2022-11-25T09:21:11;8.60;92.53
13713;DHT22;6928;50.546;7.120;2022-11-25T09:23:39;8.71;92.45
13713;DHT22;6928;50.546;7.120;2022-11-25T09:26:06;8.85;91.67
13713;DHT22;6928;50.546;7.120;2022-11-25T09:28:34;8.92;91.34
13713;DHT22;6928;50.546;7.120;2022-11-25T09:31:06;9.33;92.15
13713;DHT22;6928;50.546;7.120;2022-11-25T09:33:32;9.05;90.85
13713;DHT22;6928;50.546;7.120;2022-11-25T09:35:59;8.99;90.87
13713;DHT22;6928;50.546;7.120;2022-11-25T09:38:26;9.27;90.52
13713;DHT22;6928;50.546;7.120;2022-11-25T09:40:57;9.22;90.04
13713;DHT22;6928;50.546;7.120;2022-11-25T09:43:37;9.54;89.90
13713;DHT22;6928;50.546;7.120;2022-11-25T09:46:34;9.52;89.39
13713;DHT22;6928;50.546;7.120;2022-11-25T09:49:13;9.62;87.77
13713;DHT22;6928;50.546;7.120;2022-11-25T09:51:58;10.09;87.72
13713;DHT22;6928;50.546;7.120;2022-11-25T09:54:30;10.44;85.79
13713;DHT22;6928;50.546;7.120;2022-11-25T09:57:03;10.51;83.51
13713;DHT22;6928;50.546;7.120;2022-11-25T09:59:40;10.78;82.55
13713;DHT22;6928;50.546;7.120;2022-11-25T10:02:12;10.97;82.97
13713;DHT22;6928;50.546;7.120;2022-11-25T10:04:48;11.12;81.43
13713;DHT22;6928;50.546;7.120;2022-11-25T10:07:24;11.20;81.64
13713;DHT22;6928;50.546;7.120;2022-11-25T10:09:55;11.16;81.00
13713;DHT22;6928;50.546;7.120;2022-11-25T10:12:25;11.34;80.40
13713;DHT22;6928;50.546;7.120;2022-11-25T10:14:59;11.25;80.45
13713;DHT22;6928;50.546;7.120;2022-11-25T10:17:32;11.39;79.77
13713;DHT22;6928;50.546;7.120;2022-11-25T10:20:04;11.52;79.53
13713;DHT22;6928;50.546;7.120;2022-11-25T10:22:33;11.50;79.69
13713;DHT22;6928;50.546;7.120;2022-11-25T10:25:04;11.45;78.91
13713;DHT22;6928;50.546;7.120;2022-11-25T10:27:41;11.50;77.64
13713;DHT22;6928;50.546;7.120;2022-11-25T10:30:16;11.62;77.70
13713;DHT22;6928;50.546;7.120;2022-11-25T10:32:47;11.70;76.74
13713;DHT22;6928;50.546;7.120;2022-11-25T10:35:24;11.87;77.51
13713;DHT22;6928;50.546;7.120;2022-11-25T10:37:53;11.74;77.12
13713;DHT22;6928;50.546;7.120;2022-11-25T10:40:20;11.73;76.51
13713;DHT22;6928;50.546;7.120;2022-11-25T10:42:47;11.94;75.83
13713;DHT22;6928;50.546;7.120;2022-11-25T10:45:15;11.98;76.18
13713;DHT22;6928;50.546;7.120;2022-11-25T10:50:48;12.15;75.94
13713;DHT22;6928;50.546;7.120;2022-11-25T10:53:19;12.01;75.22
13713;DHT22;6928;50.546;7.120;2022-11-25T10:55:57;12.13;76.81
13713;DHT22;6928;50.546;7.120;2022-11-25T10:58:32;12.20;75.36
13713;DHT22;6928;50.546;7.120;2022-11-25T11:01:04;12.27;75.99
13713;DHT22;6928;50.546;7.120;2022-11-25T11:03:32;12.20;73.73
13713;DHT22;6928;50.546;7.120;2022-11-25T11:05:59;12.36;74.22
13713;DHT22;6928;50.546;7.120;2022-11-25T11:08:26;12.35;73.81
13713;DHT22;6928;50.546;7.120;2022-11-25T11:11:09;12.50;74.17
13713;DHT22;6928;50.546;7.120;2022-11-25T11:13:39;12.32;74.63
13713;DHT22;6928;50.546;7.120;2022-11-25T11:16:20;12.49;74.84
13713;DHT22;6928;50.546;7.120;2022-11-25T11:18:48;12.66;75.23
13713;DHT22;6928;50.546;7.120;2022-11-25T11:21:22;12.62;75.25
13713;DHT22;6928;50.546;7.120;2022-11-25T11:23:52;12.36;75.46
13713;DHT22;6928;50.546;7.120;2022-11-25T11:26:22;12.39;73.80
13713;DHT22;6928;50.546;7.120;2022-11-25T11:28:57;12.75;72.97
13713;DHT22;6928;50.546;7.120;2022-11-25T11:31:28;12.60;73.82
13713;DHT22;6928;50.546;7.120;2022-11-25T11:34:01;12.62;74.56
13713;DHT22;6928;50.546;7.120;2022-11-25T11:36:41;13.11;73.17
13713;DHT22;6928;50.546;7.120;2022-11-25T11:39:24;12.77;73.48
13713;DHT22;6928;50.546;7.120;2022-11-25T11:41:58;13.10;72.63
13713;DHT22;6928;50.546;7.120;2022-11-25T11:44:35;12.99;72.59
13713;DHT22;6928;50.546;7.120;2022-11-25T11:47:16;12.86;72.62
13713;DHT22;6928;50.546;7.120;2022-11-25T11:50:02;12.94;71.24
13713;DHT22;6928;50.546;7.120;2022-11-25T11:52:45;13.38;71.02
13713;DHT22;6928;50.546;7.120;2022-11-25T11:55:20;13.59;70.73
13713;DHT22;6928;50.546;7.120;2022-11-25T11:57:59;12.96;71.66
13713;DHT22;6928;50.546;7.120;2022-11-25T12:00:28;12.83;71.98
13713;DHT22;6928;50.546;7.120;2022-11-25T12:03:01;12.65;72.37
13713;DHT22;6928;50.546;7.120;2022-11-25T12:05:33;12.62;72.59
13713;DHT22;6928;50.546;7.120;2022-11-25T12:08:05;12.31;72.53
13713;DHT22;6928;50.546;7.120;2022-11-25T12:10:37;12.32;73.95
13713;DHT22;6928;50.546;7.120;2022-11-25T12:13:13;12.24;73.14
13713;DHT22;6928;50.546;7.120;2022-11-25T12:15:47;12.21;72.63
13713;DHT22;6928;50.546;7.120;2022-11-25T12:18:31;12.36;71.37
13713;DHT22;6928;50.546;7.120;2022-11-25T12:21:01;12.70;71.21
13713;DHT22;6928;50.546;7.120;2022-11-25T12:23:38;12.87;69.94
13713;DHT22;6928;50.546;7.120;2022-11-25T12:26:10;12.87;69.02
13713;DHT22;6928;50.546;7.120;2022-11-25T12:28:42;12.93;69.23
13713;DHT22;6928;50.546;7.120;2022-11-25T12:31:15;12.90;70.17
13713;DHT22;6928;50.546;7.120;2022-11-25T12:33:54;13.17;68.64
13713;DHT22;6928;50.546;7.120;2022-11-25T12:36:29;12.99;69.81
13713;DHT22;6928;50.546;7.120;2022-11-25T12:39:01;12.88;69.34
13713;DHT22;6928;50.546;7.120;2022-11-25T12:41:36;12.81;70.19
13713;DHT22;6928;50.546;7.120;2022-11-25T12:44:11;12.57;70.78
13713;DHT22;6928;50.546;7.120;2022-11-25T12:46:43;12.67;70.62
13713;DHT22;6928;50.546;7.120;2022-11-25T12:49:16;12.53;71.05
13713;DHT22;6928;50.546;7.120;2022-11-25T12:52:13;12.46;71.41
13713;DHT22;6928;50.546;7.120;2022-11-25T12:55:13;12.34;71.67
13713;DHT22;6928;50.546;7.120;2022-11-25T12:58:13;12.65;71.20
13713;DHT22;6928;50.546;7.120;2022-11-25T13:10:27;13.17;69.00
13713;DHT22;6928;50.546;7.120;2022-11-25T13:13:08;13.03;69.58
13713;DHT22;6928;50.546;7.120;2022-11-25T13:15:40;13.07;69.54
13713;DHT22;6928;50.546;7.120;2022-11-25T13:18:10;13.13;69.58
13713;DHT22;6928;50.546;7.120;2022-11-25T13:20:43;13.02;70.04
13713;DHT22;6928;50.546;7.120;2022-11-25T13:23:29;13.00;71.28
13713;DHT22;6928;50.546;7.120;2022-11-25T13:29:05;12.81;70.93
13713;DHT22;6928;50.546;7.120;2022-11-25T13:31:33;12.70;70.21
13713;DHT22;6928;50.546;7.120;2022-11-25T13:34:25;12.65;70.35
13713;DHT22;6928;50.546;7.120;2022-11-25T13:36:53;12.49;71.00
13713;DHT22;6928;50.546;7.120;2022-11-25T13:39:30;12.38;71.22
13713;DHT22;6928;50.546;7.120;2022-11-25T13:41:59;12.32;70.91
13713;DHT22;6928;50.546;7.120;2022-11-25T13:44:28;12.42;71.46
13713;DHT22;6928;50.546;7.120;2022-11-25T13:46:58;12.38;72.04
13713;DHT22;6928;50.546;7.120;2022-11-25T13:49:33;12.34;71.28
13713;DHT22;6928;50.546;7.120;2022-11-25T13:52:03;12.44;71.64
13713;DHT22;6928;50.546;7.120;2022-11-25T13:54:35;12.39;72.15
13713;DHT22;6928;50.546;7.120;2022-11-25T13:57:22;12.36;71.80
13713;DHT22;6928;50.546;7.120;2022-11-25T13:59:53;12.32;72.17
13713;DHT22;6928;50.546;7.120;2022-11-25T14:02:32;12.28;72.87
13713;DHT22;6928;50.546;7.120;2022-11-25T14:05:06;12.22;72.56
13713;DHT22;6928;50.546;7.120;2022-11-25T14:07:41;12.22;72.87
13713;DHT22;6928;50.546;7.120;2022-11-25T14:10:40;12.24;73.51
13713;DHT22;6928;50.546;7.120;2022-11-25T14:16:20;12.25;74.27
13713;DHT22;6928;50.546;7.120;2022-11-25T14:18:56;12.25;73.38
13713;DHT22;6928;50.546;7.120;2022-11-25T14:21:43;12.25;72.93
13713;DHT22;6928;50.546;7.120;2022-11-25T14:24:21;12.28;72.68
13713;DHT22;6928;50.546;7.120;2022-11-25T14:26:56;12.18;73.86
13713;DHT22;6928;50.546;7.120;2022-11-25T14:29:27;12.15;73.74
13713;DHT22;6928;50.546;7.120;2022-11-25T14:31:57;12.11;73.20
13713;DHT22;6928;50.546;7.120;2022-11-25T14:34:28;12.13;73.74
13713;DHT22;6928;50.546;7.120;2022-11-25T14:37:00;12.08;73.62
13713;DHT22;6928;50.546;7.120;2022-11-25T14:39:36;12.05;74.07
13713;DHT22;6928;50.546;7.120;2022-11-25T14:42:08;12.07;74.30
13713;DHT22;6928;50.546;7.120;2022-11-25T14:44:38;11.98;73.88
13713;DHT22;6928;50.546;7.120;2022-11-25T14:47:06;11.95;73.71
13713;DHT22;6928;50.546;7.120;2022-11-25T14:49:43;11.95;72.79
13713;DHT22;6928;50.546;7.120;2022-11-25T14:52:15;11.99;72.03
13713;DHT22;6928;50.546;7.120;2022-11-25T14:54:43;11.97;72.62
13713;DHT22;6928;50.546;7.120;2022-11-25T14:57:12;11.91;72.71
13713;DHT22;6928;50.546;7.120;2022-11-25T14:59:39;11.93;72.05
13713;DHT22;6928;50.546;7.120;2022-11-25T15:02:05;11.91;72.34
13713;DHT22;6928;50.546;7.120;2022-11-25T15:04:48;11.84;72.43
13713;DHT22;6928;50.546;7.120;2022-11-25T15:07:18;11.84;72.71
13713;DHT22;6928;50.546;7.120;2022-11-25T15:09:46;11.77;73.68
13713;DHT22;6928;50.546;7.120;2022-11-25T15:12:16;11.78;74.61
13713;DHT22;6928;50.546;7.120;2022-11-25T15:14:48;11.67;74.33
13713;DHT22;6928;50.546;7.120;2022-11-25T15:17:23;11.65;74.15
13713;DHT22;6928;50.546;7.120;2022-11-25T15:19:51;11.47;74.39
13713;DHT22;6928;50.546;7.120;2022-11-25T15:22:20;11.43;74.56
13713;DHT22;6928;50.546;7.120;2022-11-25T15:24:47;11.40;74.86
13713;DHT22;6928;50.546;7.120;2022-11-25T15:27:18;11.38;75.65
13713;DHT22;6928;50.546;7.120;2022-11-25T15:29:47;11.34;75.49
13713;DHT22;6928;50.546;7.120;2022-11-25T15:32:16;11.23;75.63
13713;DHT22;6928;50.546;7.120;2022-11-25T15:34:44;11.25;75.67
13713;DHT22;6928;50.546;7.120;2022-11-25T15:37:12;11.20;75.90
13713;DHT22;6928;50.546;7.120;2022-11-25T15:39:38;11.08;75.65
13713;DHT22;6928;50.546;7.120;2022-11-25T15:42:10;11.12;76.27
13713;DHT22;6928;50.546;7.120;2022-11-25T15:44:47;10.97;76.93
13713;DHT22;6928;50.546;7.120;2022-11-25T15:47:19;10.98;76.89
13713;DHT22;6928;50.546;7.120;2022-11-25T15:49:48;10.70;77.89
13713;DHT22;6928;50.546;7.120;2022-11-25T15:52:18;10.40;79.03
13713;DHT22;6928;50.546;7.120;2022-11-25T15:54:48;10.50;79.07
13713;DHT22;6928;50.546;7.120;2022-11-25T15:57:17;10.59;78.55
13713;DHT22;6928;50.546;7.120;2022-11-25T15:59:48;10.44;78.41
13713;DHT22;6928;50.546;7.120;2022-11-25T16:02:35;10.46;77.71
13713;DHT22;6928;50.546;7.120;2022-11-25T16:05:36;10.51;77.83
13713;DHT22;6928;50.546;7.120;2022-11-25T16:08:26;10.23;78.74
13713;DHT22;6928;50.546;7.120;2022-11-25T16:10:55;10.23;78.85
13713;DHT22;6928;50.546;7.120;2022-11-25T16:13:37;10.23;79.56
13713;DHT22;6928;50.546;7.120;2022-11-25T16:16:12;10.12;79.32
13713;DHT22;6928;50.546;7.120;2022-11-25T16:18:41;10.09;79.64
13713;DHT22;6928;50.546;7.120;2022-11-25T16:21:11;10.08;79.94
13713;DHT22;6928;50.546;7.120;2022-11-25T16:23:41;10.12;79.73
13713;DHT22;6928;50.546;7.120;2022-11-25T16:26:14;10.05;80.11
13713;DHT22;6928;50.546;7.120;2022-11-25T16:28:49;9.87;80.56
13713;DHT22;6928;50.546;7.120;2022-11-25T16:31:18;9.85;80.19
13713;DHT22;6928;50.546;7.120;2022-11-25T16:33:45;9.71;80.83